sensor_id;sensor_type;location;lat;lon;timestamp;P1;durP1;ratioP1;P2;durP2;ratioP2
6255;SDS011;3161;48.794;9.784;2023-08-01T00:00:19;4.03;;;2.60;;
6255;SDS011;3161;48.794;9.784;2023-08-01T00:02:46;4.37;;;2.50;;
6255;SDS011;3161;48.794;9.784;2023-08-01T00:05:14;2.30;;;2.10;;
6255;SDS011;3161;48.794;9.784;2023-08-01T00:07:41;3.83;;;2.73;;
6255;SDS011;3161;48.794;9.784;2023-08-01T00:10:09;2.83;;;2.30;;
6255;SDS011;3161;48.794;9.784;2023-08-01T00:12:36;3.13;;;2.13;;
6255;SDS011;3161;48.794;9.784;2023-08-01T00:15:04;9.10;;;2.73;;
6255;SDS011;3161;48.794;9.784;2023-08-01T00:17:33;6.93;;;2.77;;
6255;SDS011;3161;48.794;9.784;2023-08-01T00:20:04;4.70;;;2.73;;
6255;SDS011;3161;48.794;9.784;2023-08-01T00:22:32;2.90;;;2.00;;
6255;SDS011;3161;48.794;9.784;2023-08-01T00:25:00;5.00;;;2.73;;
6255;SDS011;3161;48.794;9.784;2023-08-01T00:27:27;4.37;;;2.67;;
6255;SDS011;3161;48.794;9.784;2023-08-01T00:29:55;6.13;;;2.70;;
6255;SDS011;3161;48.794;9.784;2023-08-01T00:32:22;7.03;;;3.27;;
6255;SDS011;3161;48.794;9.784;2023-08-01T00:34:50;10.03;;;3.20;;
6255;SDS011;3161;48.794;9.784;2023-08-01T00:37:18;4.73;;;2.63;;
6255;SDS011;3161;48.794;9.784;2023-08-01T00:39:45;5.13;;;2.77;;
6255;SDS011;3161;48.794;9.784;2023-08-01T00:42:13;4.00;;;2.93;;
6255;SDS011;3161;48.794;9.784;2023-08-01T00:44:40;8.80;;;3.40;;
6255;SDS011;3161;48.794;9.784;2023-08-01T00:47:08;5.60;;;2.97;;
6255;SDS011;3161;48.794;9.784;2023-08-01T00:49:37;3.80;;;2.60;;
6255;SDS011;3161;48.794;9.784;2023-08-01T00:52:05;5.17;;;3.30;;
6255;SDS011;3161;48.794;9.784;2023-08-01T00:54:33;3.73;;;3.10;;
6255;SDS011;3161;48.794;9.784;2023-08-01T00:57:05;6.37;;;3.47;;
6255;SDS011;3161;48.794;9.784;2023-08-01T00:59:33;4.33;;;2.90;;
6255;SDS011;3161;48.794;9.784;2023-08-01T01:02:01;8.33;;;2.90;;
6255;SDS011;3161;48.794;9.784;2023-08-01T01:04:30;6.00;;;3.10;;
6255;SDS011;3161;48.794;9.784;2023-08-01T01:07:00;7.03;;;2.93;;
6255;SDS011;3161;48.794;9.784;2023-08-01T01:09:28;4.97;;;3.27;;
6255;SDS011;3161;48.794;9.784;2023-08-01T01:12:00;5.00;;;2.90;;
6255;SDS011;3161;48.794;9.784;2023-08-01T01:14:28;5.67;;;3.23;;
6255;SDS011;3161;48.794;9.784;2023-08-01T01:16:56;3.93;;;2.60;;
6255;SDS011;3161;48.794;9.784;2023-08-01T01:19:25;6.30;;;3.00;;
6255;SDS011;3161;48.794;9.784;2023-08-01T01:21:52;8.93;;;2.87;;
6255;SDS011;3161;48.794;9.784;2023-08-01T01:24:20;3.00;;;2.70;;
6255;SDS011;3161;48.794;9.784;2023-08-01T01:26:49;6.07;;;3.20;;
6255;SDS011;3161;48.794;9.784;2023-08-01T01:29:17;8.27;;;3.03;;
6255;SDS011;3161;48.794;9.784;2023-08-01T01:31:46;3.90;;;2.43;;
6255;SDS011;3161;48.794;9.784;2023-08-01T01:34:15;9.57;;;3.00;;
6255;SDS011;3161;48.794;9.784;2023-08-01T01:36:43;13.53;;;3.43;;
6255;SDS011;3161;48.794;9.784;2023-08-01T01:39:11;4.53;;;2.77;;
6255;SDS011;3161;48.794;9.784;2023-08-01T01:41:38;6.33;;;3.17;;
6255;SDS011;3161;48.794;9.784;2023-08-01T01:44:06;8.00;;;2.80;;
6255;SDS011;3161;48.794;9.784;2023-08-01T01:46:33;9.40;;;3.10;;
6255;SDS011;3161;48.794;9.784;2023-08-01T01:49:01;6.70;;;3.40;;
6255;SDS011;3161;48.794;9.784;2023-08-01T01:51:28;5.10;;;3.40;;
6255;SDS011;3161;48.794;9.784;2023-08-01T01:53:57;4.73;;;3.10;;
6255;SDS011;3161;48.794;9.784;2023-08-01T01:56:24;7.37;;;3.37;;
6255;SDS011;3161;48.794;9.784;2023-08-01T01:58:51;9.10;;;3.47;;
6255;SDS011;3161;48.794;9.784;2023-08-01T02:01:19;5.67;;;2.87;;
6255;SDS011;3161;48.794;9.784;2023-08-01T02:03:46;6.10;;;3.10;;
6255;SDS011;3161;48.794;9.784;2023-08-01T02:06:14;3.27;;;2.63;;
6255;SDS011;3161;48.794;9.784;2023-08-01T02:08:42;5.13;;;3.57;;
6255;SDS011;3161;48.794;9.784;2023-08-01T02:11:09;8.77;;;3.10;;
6255;SDS011;3161;48.794;9.784;2023-08-01T02:13:37;4.80;;;3.10;;
6255;SDS011;3161;48.794;9.784;2023-08-01T02:16:04;5.43;;;3.53;;
6255;SDS011;3161;48.794;9.784;2023-08-01T02:18:32;4.90;;;2.57;;
6255;SDS011;3161;48.794;9.784;2023-08-01T02:20:59;7.23;;;3.87;;
6255;SDS011;3161;48.794;9.784;2023-08-01T02:23:27;4.80;;;3.30;;
6255;SDS011;3161;48.794;9.784;2023-08-01T02:25:54;3.60;;;3.17;;
6255;SDS011;3161;48.794;9.784;2023-08-01T02:28:22;3.13;;;2.83;;
6255;SDS011;3161;48.794;9.784;2023-08-01T02:30:49;4.80;;;2.50;;
6255;SDS011;3161;48.794;9.784;2023-08-01T02:33:17;3.83;;;2.97;;
6255;SDS011;3161;48.794;9.784;2023-08-01T02:35:46;6.03;;;3.63;;
6255;SDS011;3161;48.794;9.784;2023-08-01T02:38:13;3.80;;;2.87;;
6255;SDS011;3161;48.794;9.784;2023-08-01T02:40:41;4.63;;;2.83;;
6255;SDS011;3161;48.794;9.784;2023-08-01T02:43:09;3.63;;;2.73;;
6255;SDS011;3161;48.794;9.784;2023-08-01T02:45:36;7.70;;;3.03;;
6255;SDS011;3161;48.794;9.784;2023-08-01T02:48:04;3.03;;;2.70;;
6255;SDS011;3161;48.794;9.784;2023-08-01T02:50:31;6.03;;;3.17;;
6255;SDS011;3161;48.794;9.784;2023-08-01T02:52:59;3.67;;;2.90;;
6255;SDS011;3161;48.794;9.784;2023-08-01T02:55:26;4.27;;;2.93;;
6255;SDS011;3161;48.794;9.784;2023-08-01T02:57:54;5.53;;;3.30;;
6255;SDS011;3161;48.794;9.784;2023-08-01T03:00:21;3.87;;;2.80;;
6255;SDS011;3161;48.794;9.784;2023-08-01T03:02:49;4.33;;;2.67;;
6255;SDS011;3161;48.794;9.784;2023-08-01T03:05:17;9.30;;;3.10;;
6255;SDS011;3161;48.794;9.784;2023-08-01T03:07:44;6.30;;;3.37;;
6255;SDS011;3161;48.794;9.784;2023-08-01T03:10:12;5.37;;;3.20;;
6255;SDS011;3161;48.794;9.784;2023-08-01T03:12:39;10.87;;;3.03;;
6255;SDS011;3161;48.794;9.784;2023-08-01T03:18:02;5.53;;;3.10;;
6255;SDS011;3161;48.794;9.784;2023-08-01T03:20:30;5.63;;;3.00;;
6255;SDS011;3161;48.794;9.784;2023-08-01T03:22:57;4.67;;;2.90;;
6255;SDS011;3161;48.794;9.784;2023-08-01T03:25:25;7.33;;;3.57;;
6255;SDS011;3161;48.794;9.784;2023-08-01T03:27:53;4.43;;;3.40;;
6255;SDS011;3161;48.794;9.784;2023-08-01T03:30:20;5.67;;;3.40;;
6255;SDS011;3161;48.794;9.784;2023-08-01T03:32:48;5.53;;;3.43;;
6255;SDS011;3161;48.794;9.784;2023-08-01T03:35:16;6.10;;;3.87;;
6255;SDS011;3161;48.794;9.784;2023-08-01T03:37:43;7.20;;;3.60;;
6255;SDS011;3161;48.794;9.784;2023-08-01T03:40:11;7.50;;;3.47;;
6255;SDS011;3161;48.794;9.784;2023-08-01T03:42:38;9.07;;;4.10;;
6255;SDS011;3161;48.794;9.784;2023-08-01T03:45:06;5.53;;;3.60;;
6255;SDS011;3161;48.794;9.784;2023-08-01T03:47:34;3.23;;;2.93;;
6255;SDS011;3161;48.794;9.784;2023-08-01T03:50:02;8.23;;;3.70;;
6255;SDS011;3161;48.794;9.784;2023-08-01T03:52:30;4.90;;;3.23;;
6255;SDS011;3161;48.794;9.784;2023-08-01T03:54:57;9.30;;;3.63;;
6255;SDS011;3161;48.794;9.784;2023-08-01T03:57:25;4.33;;;3.77;;
6255;SDS011;3161;48.794;9.784;2023-08-01T03:59:52;4.53;;;3.80;;
6255;SDS011;3161;48.794;9.784;2023-08-01T04:02:20;12.00;;;3.53;;
6255;SDS011;3161;48.794;9.784;2023-08-01T04:04:47;7.60;;;3.63;;
6255;SDS011;3161;48.794;9.784;2023-08-01T04:07:15;5.97;;;4.07;;
6255;SDS011;3161;48.794;9.784;2023-08-01T04:09:42;4.90;;;3.27;;
6255;SDS011;3161;48.794;9.784;2023-08-01T04:12:10;8.33;;;3.90;;
6255;SDS011;3161;48.794;9.784;2023-08-01T04:14:37;9.07;;;4.17;;
6255;SDS011;3161;48.794;9.784;2023-08-01T04:17:05;6.37;;;3.73;;
6255;SDS011;3161;48.794;9.784;2023-08-01T04:19:33;10.73;;;4.20;;
6255;SDS011;3161;48.794;9.784;2023-08-01T04:22:00;8.97;;;4.47;;
6255;SDS011;3161;48.794;9.784;2023-08-01T04:24:28;11.20;;;3.93;;
6255;SDS011;3161;48.794;9.784;2023-08-01T04:26:56;12.77;;;4.37;;
6255;SDS011;3161;48.794;9.784;2023-08-01T04:29:24;13.53;;;4.97;;
6255;SDS011;3161;48.794;9.784;2023-08-01T04:31:51;11.47;;;4.60;;
6255;SDS011;3161;48.794;9.784;2023-08-01T04:34:19;8.20;;;4.30;;
6255;SDS011;3161;48.794;9.784;2023-08-01T04:36:46;13.83;;;4.60;;
6255;SDS011;3161;48.794;9.784;2023-08-01T04:39:14;8.80;;;4.00;;
6255;SDS011;3161;48.794;9.784;2023-08-01T04:41:41;5.73;;;3.70;;
6255;SDS011;3161;48.794;9.784;2023-08-01T04:44:09;8.47;;;3.20;;
6255;SDS011;3161;48.794;9.784;2023-08-01T04:46:36;4.80;;;3.60;;
6255;SDS011;3161;48.794;9.784;2023-08-01T04:49:04;9.90;;;3.70;;
6255;SDS011;3161;48.794;9.784;2023-08-01T04:51:31;8.17;;;3.37;;
6255;SDS011;3161;48.794;9.784;2023-08-01T04:53:59;7.93;;;3.30;;
6255;SDS011;3161;48.794;9.784;2023-08-01T04:56:26;5.87;;;2.70;;
6255;SDS011;3161;48.794;9.784;2023-08-01T04:58:54;5.67;;;3.07;;
6255;SDS011;3161;48.794;9.784;2023-08-01T05:01:22;10.37;;;2.93;;
6255;SDS011;3161;48.794;9.784;2023-08-01T05:03:49;6.77;;;3.07;;
6255;SDS011;3161;48.794;9.784;2023-08-01T05:06:17;4.87;;;2.97;;
6255;SDS011;3161;48.794;9.784;2023-08-01T05:08:44;4.70;;;3.10;;
6255;SDS011;3161;48.794;9.784;2023-08-01T05:11:12;7.80;;;3.27;;
6255;SDS011;3161;48.794;9.784;2023-08-01T05:13:39;4.93;;;3.10;;
6255;SDS011;3161;48.794;9.784;2023-08-01T05:16:07;4.90;;;3.33;;
6255;SDS011;3161;48.794;9.784;2023-08-01T05:18:35;5.23;;;3.10;;
6255;SDS011;3161;48.794;9.784;2023-08-01T05:21:04;4.33;;;2.47;;
6255;SDS011;3161;48.794;9.784;2023-08-01T05:23:32;5.63;;;3.03;;
6255;SDS011;3161;48.794;9.784;2023-08-01T05:25:59;5.87;;;3.43;;
6255;SDS011;3161;48.794;9.784;2023-08-01T05:28:27;6.50;;;2.80;;
6255;SDS011;3161;48.794;9.784;2023-08-01T05:30:54;6.47;;;3.40;;
6255;SDS011;3161;48.794;9.784;2023-08-01T05:33:22;5.60;;;3.40;;
6255;SDS011;3161;48.794;9.784;2023-08-01T05:35:50;9.83;;;3.43;;
6255;SDS011;3161;48.794;9.784;2023-08-01T05:38:17;4.43;;;2.93;;
6255;SDS011;3161;48.794;9.784;2023-08-01T05:40:45;5.63;;;3.27;;
6255;SDS011;3161;48.794;9.784;2023-08-01T05:43:12;7.17;;;3.07;;
6255;SDS011;3161;48.794;9.784;2023-08-01T05:45:40;7.17;;;3.70;;
6255;SDS011;3161;48.794;9.784;2023-08-01T05:48:07;6.77;;;3.83;;
6255;SDS011;3161;48.794;9.784;2023-08-01T05:50:35;3.50;;;2.50;;
6255;SDS011;3161;48.794;9.784;2023-08-01T05:53:03;8.30;;;2.50;;
6255;SDS011;3161;48.794;9.784;2023-08-01T05:55:31;9.37;;;2.83;;
6255;SDS011;3161;48.794;9.784;2023-08-01T05:57:59;3.93;;;2.73;;
6255;SDS011;3161;48.794;9.784;2023-08-01T06:00:26;5.10;;;2.53;;
6255;SDS011;3161;48.794;9.784;2023-08-01T06:02:56;4.67;;;2.40;;
6255;SDS011;3161;48.794;9.784;2023-08-01T06:05:24;5.40;;;2.60;;
6255;SDS011;3161;48.794;9.784;2023-08-01T06:07:51;5.83;;;2.73;;
6255;SDS011;3161;48.794;9.784;2023-08-01T06:10:19;5.30;;;2.70;;
6255;SDS011;3161;48.794;9.784;2023-08-01T06:12:47;4.43;;;3.10;;
6255;SDS011;3161;48.794;9.784;2023-08-01T06:15:14;8.37;;;3.50;;
6255;SDS011;3161;48.794;9.784;2023-08-01T06:17:42;5.70;;;2.60;;
6255;SDS011;3161;48.794;9.784;2023-08-01T06:20:10;15.00;;;3.33;;
6255;SDS011;3161;48.794;9.784;2023-08-01T06:22:38;7.77;;;3.73;;
6255;SDS011;3161;48.794;9.784;2023-08-01T06:25:06;5.37;;;3.03;;
6255;SDS011;3161;48.794;9.784;2023-08-01T06:27:34;7.17;;;4.00;;
6255;SDS011;3161;48.794;9.784;2023-08-01T06:30:01;4.87;;;3.00;;
6255;SDS011;3161;48.794;9.784;2023-08-01T06:32:29;8.90;;;3.33;;
6255;SDS011;3161;48.794;9.784;2023-08-01T06:34:56;7.50;;;2.77;;
6255;SDS011;3161;48.794;9.784;2023-08-01T06:37:24;4.40;;;3.17;;
6255;SDS011;3161;48.794;9.784;2023-08-01T06:39:51;6.73;;;3.43;;
6255;SDS011;3161;48.794;9.784;2023-08-01T06:42:20;5.97;;;3.43;;
6255;SDS011;3161;48.794;9.784;2023-08-01T06:44:48;7.17;;;3.60;;
6255;SDS011;3161;48.794;9.784;2023-08-01T06:47:15;12.03;;;3.63;;
6255;SDS011;3161;48.794;9.784;2023-08-01T06:49:43;14.87;;;3.73;;
6255;SDS011;3161;48.794;9.784;2023-08-01T06:52:10;8.03;;;3.30;;
6255;SDS011;3161;48.794;9.784;2023-08-01T06:54:38;7.73;;;3.53;;
6255;SDS011;3161;48.794;9.784;2023-08-01T06:57:06;5.97;;;2.97;;
6255;SDS011;3161;48.794;9.784;2023-08-01T06:59:34;3.33;;;2.63;;
6255;SDS011;3161;48.794;9.784;2023-08-01T07:02:01;5.33;;;2.90;;
6255;SDS011;3161;48.794;9.784;2023-08-01T07:04:29;5.50;;;2.97;;
6255;SDS011;3161;48.794;9.784;2023-08-01T07:06:56;4.00;;;2.87;;
6255;SDS011;3161;48.794;9.784;2023-08-01T07:09:24;7.27;;;3.27;;
6255;SDS011;3161;48.794;9.784;2023-08-01T07:11:52;9.03;;;2.87;;
6255;SDS011;3161;48.794;9.784;2023-08-01T07:14:19;4.60;;;2.93;;
6255;SDS011;3161;48.794;9.784;2023-08-01T07:16:47;5.17;;;2.87;;
6255;SDS011;3161;48.794;9.784;2023-08-01T07:19:14;10.33;;;3.77;;
6255;SDS011;3161;48.794;9.784;2023-08-01T07:21:42;4.60;;;3.40;;
6255;SDS011;3161;48.794;9.784;2023-08-01T07:24:11;3.60;;;2.70;;
6255;SDS011;3161;48.794;9.784;2023-08-01T07:26:40;3.87;;;3.03;;
6255;SDS011;3161;48.794;9.784;2023-08-01T07:29:07;13.00;;;7.13;;
6255;SDS011;3161;48.794;9.784;2023-08-01T07:31:37;6.17;;;3.47;;
6255;SDS011;3161;48.794;9.784;2023-08-01T07:34:04;5.47;;;3.33;;
6255;SDS011;3161;48.794;9.784;2023-08-01T07:36:32;4.17;;;3.30;;
6255;SDS011;3161;48.794;9.784;2023-08-01T07:38:59;9.00;;;3.57;;
6255;SDS011;3161;48.794;9.784;2023-08-01T07:41:27;6.67;;;3.00;;
6255;SDS011;3161;48.794;9.784;2023-08-01T07:43:54;3.17;;;2.70;;
6255;SDS011;3161;48.794;9.784;2023-08-01T07:46:22;6.40;;;3.30;;
6255;SDS011;3161;48.794;9.784;2023-08-01T07:48:49;5.07;;;3.13;;
6255;SDS011;3161;48.794;9.784;2023-08-01T07:51:18;5.10;;;3.30;;
6255;SDS011;3161;48.794;9.784;2023-08-01T07:53:46;7.73;;;3.70;;
6255;SDS011;3161;48.794;9.784;2023-08-01T07:56:13;5.00;;;3.43;;
6255;SDS011;3161;48.794;9.784;2023-08-01T07:58:41;7.37;;;3.57;;
6255;SDS011;3161;48.794;9.784;2023-08-01T08:01:09;10.20;;;4.00;;
6255;SDS011;3161;48.794;9.784;2023-08-01T08:03:36;8.03;;;4.10;;
6255;SDS011;3161;48.794;9.784;2023-08-01T08:06:04;7.90;;;4.20;;
6255;SDS011;3161;48.794;9.784;2023-08-01T08:08:31;5.57;;;3.87;;
6255;SDS011;3161;48.794;9.784;2023-08-01T08:10:59;5.33;;;3.33;;
6255;SDS011;3161;48.794;9.784;2023-08-01T08:13:27;6.87;;;3.97;;
6255;SDS011;3161;48.794;9.784;2023-08-01T08:15:55;10.27;;;3.57;;
6255;SDS011;3161;48.794;9.784;2023-08-01T08:18:23;6.90;;;3.70;;
6255;SDS011;3161;48.794;9.784;2023-08-01T08:20:51;5.13;;;3.60;;
6255;SDS011;3161;48.794;9.784;2023-08-01T08:23:19;3.33;;;3.00;;
6255;SDS011;3161;48.794;9.784;2023-08-01T08:25:47;9.10;;;3.80;;
6255;SDS011;3161;48.794;9.784;2023-08-01T08:28:15;5.40;;;3.63;;
6255;SDS011;3161;48.794;9.784;2023-08-01T08:30:45;4.47;;;3.57;;
6255;SDS011;3161;48.794;9.784;2023-08-01T08:33:20;5.60;;;3.70;;
6255;SDS011;3161;48.794;9.784;2023-08-01T08:35:47;6.37;;;3.40;;
6255;SDS011;3161;48.794;9.784;2023-08-01T08:38:15;5.83;;;3.13;;
6255;SDS011;3161;48.794;9.784;2023-08-01T08:40:43;7.30;;;3.60;;
6255;SDS011;3161;48.794;9.784;2023-08-01T08:43:33;4.57;;;3.13;;
6255;SDS011;3161;48.794;9.784;2023-08-01T08:46:01;5.33;;;3.50;;
6255;SDS011;3161;48.794;9.784;2023-08-01T08:48:30;8.73;;;4.07;;
6255;SDS011;3161;48.794;9.784;2023-08-01T08:50:59;6.57;;;3.20;;
6255;SDS011;3161;48.794;9.784;2023-08-01T08:53:30;6.63;;;3.40;;
6255;SDS011;3161;48.794;9.784;2023-08-01T08:56:00;9.77;;;3.87;;
6255;SDS011;3161;48.794;9.784;2023-08-01T08:58:29;4.27;;;3.63;;
6255;SDS011;3161;48.794;9.784;2023-08-01T09:00:58;8.07;;;4.07;;
6255;SDS011;3161;48.794;9.784;2023-08-01T09:03:29;10.80;;;3.90;;
6255;SDS011;3161;48.794;9.784;2023-08-01T09:06:02;5.70;;;3.20;;
6255;SDS011;3161;48.794;9.784;2023-08-01T09:08:36;7.53;;;3.27;;
6255;SDS011;3161;48.794;9.784;2023-08-01T09:11:03;6.53;;;3.57;;
6255;SDS011;3161;48.794;9.784;2023-08-01T09:13:31;5.83;;;3.53;;
6255;SDS011;3161;48.794;9.784;2023-08-01T09:15:59;6.63;;;3.83;;
6255;SDS011;3161;48.794;9.784;2023-08-01T09:18:29;8.63;;;3.60;;
6255;SDS011;3161;48.794;9.784;2023-08-01T09:20:57;4.87;;;3.67;;
6255;SDS011;3161;48.794;9.784;2023-08-01T09:23:28;7.83;;;3.77;;
6255;SDS011;3161;48.794;9.784;2023-08-01T09:25:56;6.80;;;3.57;;
6255;SDS011;3161;48.794;9.784;2023-08-01T09:28:24;9.93;;;3.90;;
6255;SDS011;3161;48.794;9.784;2023-08-01T09:30:53;4.57;;;3.33;;
6255;SDS011;3161;48.794;9.784;2023-08-01T09:33:23;4.27;;;2.90;;
6255;SDS011;3161;48.794;9.784;2023-08-01T09:35:51;6.00;;;3.03;;
6255;SDS011;3161;48.794;9.784;2023-08-01T09:38:18;5.80;;;3.30;;
6255;SDS011;3161;48.794;9.784;2023-08-01T09:40:46;4.73;;;2.77;;
6255;SDS011;3161;48.794;9.784;2023-08-01T09:43:15;3.90;;;3.10;;
6255;SDS011;3161;48.794;9.784;2023-08-01T09:45:49;5.43;;;3.30;;
6255;SDS011;3161;48.794;9.784;2023-08-01T09:48:22;4.07;;;2.93;;
6255;SDS011;3161;48.794;9.784;2023-08-01T09:51:09;5.53;;;2.83;;
6255;SDS011;3161;48.794;9.784;2023-08-01T09:53:51;4.70;;;3.30;;
6255;SDS011;3161;48.794;9.784;2023-08-01T09:56:25;6.17;;;3.00;;
6255;SDS011;3161;48.794;9.784;2023-08-01T09:58:53;4.73;;;3.00;;
6255;SDS011;3161;48.794;9.784;2023-08-01T10:01:22;3.03;;;2.73;;
6255;SDS011;3161;48.794;9.784;2023-08-01T10:06:46;5.43;;;3.70;;
6255;SDS011;3161;48.794;9.784;2023-08-01T10:09:16;7.90;;;4.10;;
6255;SDS011;3161;48.794;9.784;2023-08-01T10:11:44;5.87;;;3.93;;
6255;SDS011;3161;48.794;9.784;2023-08-01T10:14:12;6.83;;;3.00;;
6255;SDS011;3161;48.794;9.784;2023-08-01T10:16:40;7.77;;;2.90;;
6255;SDS011;3161;48.794;9.784;2023-08-01T10:19:08;4.03;;;2.83;;
6255;SDS011;3161;48.794;9.784;2023-08-01T10:21:37;3.67;;;2.50;;
6255;SDS011;3161;48.794;9.784;2023-08-01T10:24:06;4.53;;;3.03;;
6255;SDS011;3161;48.794;9.784;2023-08-01T10:26:34;3.00;;;2.27;;
6255;SDS011;3161;48.794;9.784;2023-08-01T10:29:02;6.07;;;2.57;;
6255;SDS011;3161;48.794;9.784;2023-08-01T10:31:30;4.27;;;2.50;;
6255;SDS011;3161;48.794;9.784;2023-08-01T10:34:12;3.50;;;2.10;;
6255;SDS011;3161;48.794;9.784;2023-08-01T10:36:35;3.93;;;2.43;;
6255;SDS011;3161;48.794;9.784;2023-08-01T10:39:04;3.00;;;2.00;;
6255;SDS011;3161;48.794;9.784;2023-08-01T10:41:35;7.80;;;2.00;;
6255;SDS011;3161;48.794;9.784;2023-08-01T10:44:04;2.17;;;1.37;;
6255;SDS011;3161;48.794;9.784;2023-08-01T10:46:50;2.43;;;1.50;;
6255;SDS011;3161;48.794;9.784;2023-08-01T10:49:15;3.33;;;1.87;;
6255;SDS011;3161;48.794;9.784;2023-08-01T10:51:45;3.50;;;1.60;;
6255;SDS011;3161;48.794;9.784;2023-08-01T10:54:22;2.63;;;1.47;;
6255;SDS011;3161;48.794;9.784;2023-08-01T10:56:51;2.50;;;1.43;;
6255;SDS011;3161;48.794;9.784;2023-08-01T10:59:21;1.20;;;1.10;;
6255;SDS011;3161;48.794;9.784;2023-08-01T11:01:50;1.70;;;1.30;;
6255;SDS011;3161;48.794;9.784;2023-08-01T11:04:22;2.40;;;1.30;;
6255;SDS011;3161;48.794;9.784;2023-08-01T11:06:51;3.43;;;1.10;;
6255;SDS011;3161;48.794;9.784;2023-08-01T11:09:23;3.50;;;1.17;;
6255;SDS011;3161;48.794;9.784;2023-08-01T11:11:52;1.20;;;1.10;;
6255;SDS011;3161;48.794;9.784;2023-08-01T11:14:22;1.80;;;1.00;;
6255;SDS011;3161;48.794;9.784;2023-08-01T11:16:53;2.63;;;1.30;;
6255;SDS011;3161;48.794;9.784;2023-08-01T11:19:25;2.43;;;1.27;;
6255;SDS011;3161;48.794;9.784;2023-08-01T11:21:54;3.27;;;1.10;;
6255;SDS011;3161;48.794;9.784;2023-08-01T11:24:25;1.47;;;1.10;;
6255;SDS011;3161;48.794;9.784;2023-08-01T11:26:53;3.60;;;0.87;;
6255;SDS011;3161;48.794;9.784;2023-08-01T11:29:21;7.17;;;1.23;;
6255;SDS011;3161;48.794;9.784;2023-08-01T11:31:55;4.43;;;1.20;;
6255;SDS011;3161;48.794;9.784;2023-08-01T11:34:43;1.97;;;1.13;;
6255;SDS011;3161;48.794;9.784;2023-08-01T11:37:15;2.63;;;0.97;;
6255;SDS011;3161;48.794;9.784;2023-08-01T11:39:45;1.13;;;0.73;;
6255;SDS011;3161;48.794;9.784;2023-08-01T11:42:15;0.70;;;0.70;;
6255;SDS011;3161;48.794;9.784;2023-08-01T11:44:43;2.70;;;0.90;;
6255;SDS011;3161;48.794;9.784;2023-08-01T11:47:12;1.87;;;1.00;;
6255;SDS011;3161;48.794;9.784;2023-08-01T11:49:47;3.27;;;1.03;;
6255;SDS011;3161;48.794;9.784;2023-08-01T11:52:25;0.97;;;0.70;;
6255;SDS011;3161;48.794;9.784;2023-08-01T11:54:54;0.83;;;0.70;;
6255;SDS011;3161;48.794;9.784;2023-08-01T11:57:22;0.83;;;0.60;;
6255;SDS011;3161;48.794;9.784;2023-08-01T11:59:50;0.57;;;0.57;;
6255;SDS011;3161;48.794;9.784;2023-08-01T12:02:26;1.43;;;0.60;;
6255;SDS011;3161;48.794;9.784;2023-08-01T12:04:56;2.20;;;0.60;;
6255;SDS011;3161;48.794;9.784;2023-08-01T12:07:27;1.90;;;0.50;;
6255;SDS011;3161;48.794;9.784;2023-08-01T12:10:00;0.60;;;0.60;;
6255;SDS011;3161;48.794;9.784;2023-08-01T12:12:26;5.50;;;0.67;;
6255;SDS011;3161;48.794;9.784;2023-08-01T12:14:54;0.57;;;0.50;;
6255;SDS011;3161;48.794;9.784;2023-08-01T12:17:22;0.50;;;0.50;;
6255;SDS011;3161;48.794;9.784;2023-08-01T12:19:50;0.53;;;0.53;;
6255;SDS011;3161;48.794;9.784;2023-08-01T12:22:17;0.53;;;0.45;;
6255;SDS011;3161;48.794;9.784;2023-08-01T12:24:45;1.15;;;0.53;;
6255;SDS011;3161;48.794;9.784;2023-08-01T12:27:12;0.93;;;0.50;;
6255;SDS011;3161;48.794;9.784;2023-08-01T12:29:41;0.50;;;0.50;;
6255;SDS011;3161;48.794;9.784;2023-08-01T12:32:08;0.65;;;0.55;;
6255;SDS011;3161;48.794;9.784;2023-08-01T12:34:36;1.72;;;0.68;;
6255;SDS011;3161;48.794;9.784;2023-08-01T12:37:04;0.75;;;0.60;;
6255;SDS011;3161;48.794;9.784;2023-08-01T12:39:32;1.73;;;0.60;;
6255;SDS011;3161;48.794;9.784;2023-08-01T12:41:59;0.60;;;0.60;;
6255;SDS011;3161;48.794;9.784;2023-08-01T12:44:27;0.97;;;0.70;;
6255;SDS011;3161;48.794;9.784;2023-08-01T12:46:54;1.10;;;0.57;;
6255;SDS011;3161;48.794;9.784;2023-08-01T12:49:22;0.53;;;0.53;;
6255;SDS011;3161;48.794;9.784;2023-08-01T12:51:49;4.60;;;0.80;;
6255;SDS011;3161;48.794;9.784;2023-08-01T12:54:17;1.57;;;0.53;;
6255;SDS011;3161;48.794;9.784;2023-08-01T12:56:44;5.10;;;0.60;;
6255;SDS011;3161;48.794;9.784;2023-08-01T12:59:12;0.83;;;0.60;;
6255;SDS011;3161;48.794;9.784;2023-08-01T13:01:39;1.10;;;0.60;;
6255;SDS011;3161;48.794;9.784;2023-08-01T13:04:07;4.70;;;0.60;;
6255;SDS011;3161;48.794;9.784;2023-08-01T13:06:34;1.63;;;0.60;;
6255;SDS011;3161;48.794;9.784;2023-08-01T13:09:02;0.98;;;0.60;;
6255;SDS011;3161;48.794;9.784;2023-08-01T13:11:29;1.05;;;0.65;;
6255;SDS011;3161;48.794;9.784;2023-08-01T13:13:57;1.77;;;0.57;;
6255;SDS011;3161;48.794;9.784;2023-08-01T13:16:24;1.12;;;0.95;;
6255;SDS011;3161;48.794;9.784;2023-08-01T13:18:52;0.60;;;0.60;;
6255;SDS011;3161;48.794;9.784;2023-08-01T13:21:21;1.05;;;0.82;;
6255;SDS011;3161;48.794;9.784;2023-08-01T13:23:49;0.90;;;0.70;;
6255;SDS011;3161;48.794;9.784;2023-08-01T13:26:16;1.02;;;0.85;;
6255;SDS011;3161;48.794;9.784;2023-08-01T13:28:44;3.90;;;0.65;;
6255;SDS011;3161;48.794;9.784;2023-08-01T13:31:11;1.15;;;0.60;;
6255;SDS011;3161;48.794;9.784;2023-08-01T13:33:39;7.22;;;0.80;;
6255;SDS011;3161;48.794;9.784;2023-08-01T13:36:06;1.72;;;0.80;;
6255;SDS011;3161;48.794;9.784;2023-08-01T13:38:34;0.80;;;0.65;;
6255;SDS011;3161;48.794;9.784;2023-08-01T13:41:01;1.17;;;0.98;;
6255;SDS011;3161;48.794;9.784;2023-08-01T13:43:29;1.00;;;0.55;;
6255;SDS011;3161;48.794;9.784;2023-08-01T13:45:56;2.45;;;0.80;;
6255;SDS011;3161;48.794;9.784;2023-08-01T13:48:24;2.27;;;0.90;;
6255;SDS011;3161;48.794;9.784;2023-08-01T13:50:52;0.82;;;0.62;;
6255;SDS011;3161;48.794;9.784;2023-08-01T13:53:21;0.60;;;0.55;;
6255;SDS011;3161;48.794;9.784;2023-08-01T13:55:49;0.80;;;0.70;;
6255;SDS011;3161;48.794;9.784;2023-08-01T13:58:17;1.15;;;0.80;;
6255;SDS011;3161;48.794;9.784;2023-08-01T14:00:44;0.78;;;0.78;;
6255;SDS011;3161;48.794;9.784;2023-08-01T14:03:12;2.87;;;0.90;;
6255;SDS011;3161;48.794;9.784;2023-08-01T14:05:39;0.95;;;0.95;;
6255;SDS011;3161;48.794;9.784;2023-08-01T14:08:07;1.15;;;0.62;;
6255;SDS011;3161;48.794;9.784;2023-08-01T14:10:34;1.82;;;0.95;;
6255;SDS011;3161;48.794;9.784;2023-08-01T14:13:02;3.35;;;0.78;;
6255;SDS011;3161;48.794;9.784;2023-08-01T14:15:29;1.00;;;0.70;;
6255;SDS011;3161;48.794;9.784;2023-08-01T14:17:57;2.58;;;0.85;;
6255;SDS011;3161;48.794;9.784;2023-08-01T14:20:24;2.83;;;1.10;;
6255;SDS011;3161;48.794;9.784;2023-08-01T14:22:52;1.75;;;1.30;;
6255;SDS011;3161;48.794;9.784;2023-08-01T14:25:19;1.52;;;0.68;;
6255;SDS011;3161;48.794;9.784;2023-08-01T14:27:47;3.08;;;0.88;;
6255;SDS011;3161;48.794;9.784;2023-08-01T14:30:14;1.15;;;0.70;;
6255;SDS011;3161;48.794;9.784;2023-08-01T14:32:42;0.98;;;0.78;;
6255;SDS011;3161;48.794;9.784;2023-08-01T14:35:10;1.35;;;0.68;;
6255;SDS011;3161;48.794;9.784;2023-08-01T14:37:37;3.90;;;0.80;;
6255;SDS011;3161;48.794;9.784;2023-08-01T14:40:07;2.00;;;1.12;;
6255;SDS011;3161;48.794;9.784;2023-08-01T14:42:35;0.98;;;0.85;;
6255;SDS011;3161;48.794;9.784;2023-08-01T14:45:03;0.90;;;0.90;;
6255;SDS011;3161;48.794;9.784;2023-08-01T14:47:31;1.57;;;0.90;;
6255;SDS011;3161;48.794;9.784;2023-08-01T14:50:00;1.00;;;0.75;;
6255;SDS011;3161;48.794;9.784;2023-08-01T14:52:27;3.15;;;0.80;;
6255;SDS011;3161;48.794;9.784;2023-08-01T14:54:55;0.82;;;0.60;;
6255;SDS011;3161;48.794;9.784;2023-08-01T14:57:23;11.97;;;1.35;;
6255;SDS011;3161;48.794;9.784;2023-08-01T14:59:50;2.30;;;1.07;;
6255;SDS011;3161;48.794;9.784;2023-08-01T15:02:18;2.52;;;0.70;;
6255;SDS011;3161;48.794;9.784;2023-08-01T15:04:46;1.55;;;0.62;;
6255;SDS011;3161;48.794;9.784;2023-08-01T15:07:15;1.00;;;0.93;;
6255;SDS011;3161;48.794;9.784;2023-08-01T15:09:43;0.95;;;0.80;;
6255;SDS011;3161;48.794;9.784;2023-08-01T15:12:11;1.40;;;0.60;;
6255;SDS011;3161;48.794;9.784;2023-08-01T15:14:39;1.50;;;0.80;;
6255;SDS011;3161;48.794;9.784;2023-08-01T15:17:07;1.12;;;0.90;;
6255;SDS011;3161;48.794;9.784;2023-08-01T15:19:35;0.95;;;0.78;;
6255;SDS011;3161;48.794;9.784;2023-08-01T15:22:04;1.92;;;0.78;;
6255;SDS011;3161;48.794;9.784;2023-08-01T15:24:50;1.55;;;0.95;;
6255;SDS011;3161;48.794;9.784;2023-08-01T15:27:18;1.25;;;0.62;;